sensor_id;sensor_type;location;lat;lon;timestamp;P1;durP1;ratioP1;P2;durP2;ratioP2
15297;SDS011;7750;48.796;9.026;2024-03-02T00:01:17;10.00;;;7.07;;
15297;SDS011;7750;48.796;9.026;2024-03-02T00:06:19;9.73;;;7.63;;
15297;SDS011;7750;48.796;9.026;2024-03-02T00:11:21;9.40;;;6.80;;
15297;SDS011;7750;48.796;9.026;2024-03-02T00:16:23;10.27;;;7.13;;
15297;SDS011;7750;48.796;9.026;2024-03-02T00:21:29;9.63;;;7.33;;
15297;SDS011;7750;48.796;9.026;2024-03-02T00:31:41;12.50;;;8.40;;
15297;SDS011;7750;48.796;9.026;2024-03-02T00:36:42;10.60;;;8.73;;
15297;SDS011;7750;48.796;9.026;2024-03-02T00:41:43;9.73;;;7.87;;
15297;SDS011;7750;48.796;9.026;2024-03-02T00:46:45;12.30;;;8.73;;
15297;SDS011;7750;48.796;9.026;2024-03-02T00:51:46;12.20;;;9.77;;
15297;SDS011;7750;48.796;9.026;2024-03-02T00:56:51;12.00;;;10.17;;
15297;SDS011;7750;48.796;9.026;2024-03-02T01:01:56;10.60;;;8.80;;
15297;SDS011;7750;48.796;9.026;2024-03-02T01:06:57;16.20;;;11.50;;
15297;SDS011;7750;48.796;9.026;2024-03-02T01:11:59;13.13;;;10.67;;
15297;SDS011;7750;48.796;9.026;2024-03-02T01:17:00;15.60;;;10.67;;
15297;SDS011;7750;48.796;9.026;2024-03-02T01:22:05;16.87;;;12.00;;
15297;SDS011;7750;48.796;9.026;2024-03-02T01:27:07;13.70;;;10.40;;
15297;SDS011;7750;48.796;9.026;2024-03-02T01:32:07;19.50;;;11.13;;
15297;SDS011;7750;48.796;9.026;2024-03-02T01:37:08;12.70;;;10.40;;
15297;SDS011;7750;48.796;9.026;2024-03-02T01:42:10;14.70;;;10.77;;
15297;SDS011;7750;48.796;9.026;2024-03-02T01:47:13;13.50;;;9.53;;
15297;SDS011;7750;48.796;9.026;2024-03-02T01:52:14;12.90;;;9.93;;
15297;SDS011;7750;48.796;9.026;2024-03-02T01:57:14;13.83;;;10.20;;
15297;SDS011;7750;48.796;9.026;2024-03-02T02:02:16;14.83;;;10.70;;
15297;SDS011;7750;48.796;9.026;2024-03-02T02:07:17;15.63;;;11.10;;
15297;SDS011;7750;48.796;9.026;2024-03-02T02:12:17;13.50;;;10.17;;
15297;SDS011;7750;48.796;9.026;2024-03-02T02:17:18;11.40;;;9.30;;
15297;SDS011;7750;48.796;9.026;2024-03-02T02:22:19;13.23;;;10.10;;
15297;SDS011;7750;48.796;9.026;2024-03-02T02:27:20;13.60;;;10.77;;
15297;SDS011;7750;48.796;9.026;2024-03-02T02:32:20;14.83;;;11.77;;
15297;SDS011;7750;48.796;9.026;2024-03-02T02:37:21;13.50;;;10.57;;
15297;SDS011;7750;48.796;9.026;2024-03-02T02:42:22;12.13;;;9.87;;
15297;SDS011;7750;48.796;9.026;2024-03-02T02:47:22;12.70;;;11.10;;
15297;SDS011;7750;48.796;9.026;2024-03-02T02:52:23;14.27;;;10.60;;
15297;SDS011;7750;48.796;9.026;2024-03-02T02:57:23;15.00;;;11.27;;
15297;SDS011;7750;48.796;9.026;2024-03-02T03:02:24;13.17;;;10.37;;
15297;SDS011;7750;48.796;9.026;2024-03-02T03:07:27;11.90;;;9.43;;
15297;SDS011;7750;48.796;9.026;2024-03-02T03:12:28;14.77;;;11.40;;
15297;SDS011;7750;48.796;9.026;2024-03-02T03:17:29;16.47;;;11.60;;
15297;SDS011;7750;48.796;9.026;2024-03-02T03:22:30;13.63;;;10.50;;
15297;SDS011;7750;48.796;9.026;2024-03-02T03:27:35;14.10;;;10.70;;
15297;SDS011;7750;48.796;9.026;2024-03-02T03:32:36;11.60;;;9.67;;
15297;SDS011;7750;48.796;9.026;2024-03-02T03:37:36;13.30;;;10.10;;
15297;SDS011;7750;48.796;9.026;2024-03-02T03:42:38;15.13;;;10.40;;
15297;SDS011;7750;48.796;9.026;2024-03-02T03:47:39;12.13;;;9.37;;
15297;SDS011;7750;48.796;9.026;2024-03-02T03:52:40;13.40;;;11.20;;
15297;SDS011;7750;48.796;9.026;2024-03-02T03:57:40;13.13;;;10.53;;
15297;SDS011;7750;48.796;9.026;2024-03-02T04:02:42;12.90;;;10.50;;
15297;SDS011;7750;48.796;9.026;2024-03-02T04:07:43;15.27;;;11.57;;
15297;SDS011;7750;48.796;9.026;2024-03-02T04:12:44;15.50;;;11.47;;
15297;SDS011;7750;48.796;9.026;2024-03-02T04:17:44;14.63;;;11.50;;
15297;SDS011;7750;48.796;9.026;2024-03-02T04:22:45;15.93;;;10.93;;
15297;SDS011;7750;48.796;9.026;2024-03-02T04:27:46;13.97;;;9.93;;
15297;SDS011;7750;48.796;9.026;2024-03-02T04:32:47;14.17;;;10.90;;
15297;SDS011;7750;48.796;9.026;2024-03-02T04:37:48;14.87;;;10.77;;
15297;SDS011;7750;48.796;9.026;2024-03-02T04:42:49;13.93;;;11.23;;
15297;SDS011;7750;48.796;9.026;2024-03-02T04:47:50;14.07;;;11.20;;
15297;SDS011;7750;48.796;9.026;2024-03-02T04:52:50;12.47;;;9.23;;
15297;SDS011;7750;48.796;9.026;2024-03-02T04:57:51;13.77;;;9.37;;
15297;SDS011;7750;48.796;9.026;2024-03-02T05:02:54;12.07;;;10.00;;
15297;SDS011;7750;48.796;9.026;2024-03-02T05:07:55;14.97;;;9.67;;
15297;SDS011;7750;48.796;9.026;2024-03-02T05:12:55;12.00;;;8.97;;
15297;SDS011;7750;48.796;9.026;2024-03-02T05:17:59;20.40;;;9.53;;
15297;SDS011;7750;48.796;9.026;2024-03-02T05:23:02;12.50;;;9.77;;
15297;SDS011;7750;48.796;9.026;2024-03-02T05:28:03;14.00;;;9.40;;
15297;SDS011;7750;48.796;9.026;2024-03-02T05:33:04;9.50;;;8.50;;
15297;SDS011;7750;48.796;9.026;2024-03-02T05:38:05;11.07;;;8.57;;
15297;SDS011;7750;48.796;9.026;2024-03-02T05:43:09;11.13;;;8.27;;
15297;SDS011;7750;48.796;9.026;2024-03-02T05:48:09;11.67;;;8.00;;
15297;SDS011;7750;48.796;9.026;2024-03-02T05:53:10;11.77;;;9.03;;
15297;SDS011;7750;48.796;9.026;2024-03-02T05:58:11;13.80;;;10.20;;
15297;SDS011;7750;48.796;9.026;2024-03-02T06:03:25;12.10;;;9.33;;
15297;SDS011;7750;48.796;9.026;2024-03-02T06:08:26;11.70;;;9.83;;
15297;SDS011;7750;48.796;9.026;2024-03-02T06:13:27;15.43;;;8.50;;
15297;SDS011;7750;48.796;9.026;2024-03-02T06:18:27;12.67;;;8.57;;
15297;SDS011;7750;48.796;9.026;2024-03-02T06:23:29;13.77;;;10.63;;
15297;SDS011;7750;48.796;9.026;2024-03-02T06:28:30;15.60;;;11.20;;
15297;SDS011;7750;48.796;9.026;2024-03-02T06:33:30;14.17;;;10.50;;
15297;SDS011;7750;48.796;9.026;2024-03-02T06:38:32;15.17;;;11.57;;
15297;SDS011;7750;48.796;9.026;2024-03-02T06:43:33;15.07;;;11.03;;
15297;SDS011;7750;48.796;9.026;2024-03-02T06:48:34;16.57;;;12.70;;
15297;SDS011;7750;48.796;9.026;2024-03-02T06:53:34;17.90;;;12.73;;
15297;SDS011;7750;48.796;9.026;2024-03-02T06:58:35;13.73;;;10.77;;
15297;SDS011;7750;48.796;9.026;2024-03-02T07:03:35;16.93;;;13.00;;
15297;SDS011;7750;48.796;9.026;2024-03-02T07:08:36;16.10;;;12.10;;
15297;SDS011;7750;48.796;9.026;2024-03-02T07:13:40;15.17;;;12.10;;
15297;SDS011;7750;48.796;9.026;2024-03-02T07:18:48;17.17;;;13.20;;
15297;SDS011;7750;48.796;9.026;2024-03-02T07:23:51;13.87;;;11.60;;
15297;SDS011;7750;48.796;9.026;2024-03-02T07:28:52;15.27;;;11.33;;
15297;SDS011;7750;48.796;9.026;2024-03-02T07:33:53;14.97;;;11.40;;
15297;SDS011;7750;48.796;9.026;2024-03-02T07:38:53;13.60;;;10.37;;
15297;SDS011;7750;48.796;9.026;2024-03-02T07:43:54;14.77;;;11.40;;
15297;SDS011;7750;48.796;9.026;2024-03-02T07:48:56;13.70;;;10.60;;
15297;SDS011;7750;48.796;9.026;2024-03-02T07:53:57;14.10;;;11.10;;
15297;SDS011;7750;48.796;9.026;2024-03-02T07:58:57;13.37;;;10.20;;
15297;SDS011;7750;48.796;9.026;2024-03-02T08:09:03;12.83;;;9.70;;
15297;SDS011;7750;48.796;9.026;2024-03-02T08:25:24;11.30;;;8.50;;
15297;SDS011;7750;48.796;9.026;2024-03-02T08:30:25;10.17;;;7.80;;
15297;SDS011;7750;48.796;9.026;2024-03-02T08:35:25;9.27;;;7.23;;
15297;SDS011;7750;48.796;9.026;2024-03-02T08:40:26;8.90;;;6.73;;
15297;SDS011;7750;48.796;9.026;2024-03-02T08:45:27;11.23;;;7.73;;
15297;SDS011;7750;48.796;9.026;2024-03-02T08:50:28;11.30;;;8.20;;
15297;SDS011;7750;48.796;9.026;2024-03-02T08:55:31;10.53;;;7.33;;
15297;SDS011;7750;48.796;9.026;2024-03-02T09:00:31;13.30;;;7.43;;
15297;SDS011;7750;48.796;9.026;2024-03-02T09:05:32;8.87;;;6.77;;
15297;SDS011;7750;48.796;9.026;2024-03-02T09:10:32;9.60;;;6.83;;
15297;SDS011;7750;48.796;9.026;2024-03-02T09:15:33;8.53;;;6.30;;
15297;SDS011;7750;48.796;9.026;2024-03-02T09:20:38;7.27;;;5.43;;
15297;SDS011;7750;48.796;9.026;2024-03-02T09:25:38;6.80;;;4.63;;
15297;SDS011;7750;48.796;9.026;2024-03-02T09:30:39;6.13;;;4.27;;
15297;SDS011;7750;48.796;9.026;2024-03-02T09:35:40;5.83;;;4.17;;
15297;SDS011;7750;48.796;9.026;2024-03-02T09:40:41;7.07;;;4.13;;
15297;SDS011;7750;48.796;9.026;2024-03-02T09:45:42;4.43;;;3.30;;
15297;SDS011;7750;48.796;9.026;2024-03-02T09:50:47;5.07;;;3.13;;
15297;SDS011;7750;48.796;9.026;2024-03-02T09:55:47;5.80;;;3.50;;
15297;SDS011;7750;48.796;9.026;2024-03-02T10:00:51;4.40;;;2.70;;
15297;SDS011;7750;48.796;9.026;2024-03-02T10:05:53;4.10;;;2.83;;
15297;SDS011;7750;48.796;9.026;2024-03-02T10:10:54;3.63;;;2.40;;
15297;SDS011;7750;48.796;9.026;2024-03-02T10:15:55;4.30;;;2.60;;
15297;SDS011;7750;48.796;9.026;2024-03-02T10:20:57;3.47;;;2.60;;
15297;SDS011;7750;48.796;9.026;2024-03-02T10:26:16;2.87;;;1.90;;
15297;SDS011;7750;48.796;9.026;2024-03-02T10:31:18;3.40;;;2.03;;
15297;SDS011;7750;48.796;9.026;2024-03-02T10:36:19;3.87;;;1.57;;
15297;SDS011;7750;48.796;9.026;2024-03-02T10:41:23;4.30;;;2.13;;
15297;SDS011;7750;48.796;9.026;2024-03-02T10:51:30;2.90;;;1.50;;
15297;SDS011;7750;48.796;9.026;2024-03-02T10:56:39;3.17;;;1.90;;
15297;SDS011;7750;48.796;9.026;2024-03-02T11:01:41;2.10;;;1.30;;
15297;SDS011;7750;48.796;9.026;2024-03-02T11:06:49;2.20;;;1.43;;
15297;SDS011;7750;48.796;9.026;2024-03-02T11:11:56;2.37;;;1.30;;
15297;SDS011;7750;48.796;9.026;2024-03-02T11:17:06;2.30;;;1.37;;
15297;SDS011;7750;48.796;9.026;2024-03-02T11:22:08;2.40;;;1.57;;
15297;SDS011;7750;48.796;9.026;2024-03-02T11:27:09;2.93;;;1.73;;
15297;SDS011;7750;48.796;9.026;2024-03-02T11:32:14;3.13;;;1.70;;
15297;SDS011;7750;48.796;9.026;2024-03-02T11:37:19;4.10;;;1.50;;
15297;SDS011;7750;48.796;9.026;2024-03-02T11:42:20;1.60;;;1.03;;
15297;SDS011;7750;48.796;9.026;2024-03-02T11:47:21;2.00;;;1.17;;
15297;SDS011;7750;48.796;9.026;2024-03-02T11:52:21;2.50;;;1.13;;
15297;SDS011;7750;48.796;9.026;2024-03-02T11:57:23;2.37;;;1.30;;
15297;SDS011;7750;48.796;9.026;2024-03-02T12:02:24;2.13;;;1.30;;
15297;SDS011;7750;48.796;9.026;2024-03-02T12:12:31;2.73;;;1.57;;
15297;SDS011;7750;48.796;9.026;2024-03-02T12:17:31;3.47;;;1.33;;
15297;SDS011;7750;48.796;9.026;2024-03-02T12:22:40;2.20;;;1.40;;
15297;SDS011;7750;48.796;9.026;2024-03-02T12:27:41;1.80;;;1.10;;
15297;SDS011;7750;48.796;9.026;2024-03-02T12:32:41;2.30;;;1.50;;
15297;SDS011;7750;48.796;9.026;2024-03-02T12:37:46;2.40;;;1.40;;
15297;SDS011;7750;48.796;9.026;2024-03-02T12:42:50;3.30;;;1.57;;
15297;SDS011;7750;48.796;9.026;2024-03-02T12:47:52;2.87;;;1.53;;
15297;SDS011;7750;48.796;9.026;2024-03-02T12:52:53;6.73;;;1.60;;
15297;SDS011;7750;48.796;9.026;2024-03-02T12:57:54;1.87;;;1.20;;
15297;SDS011;7750;48.796;9.026;2024-03-02T13:02:56;2.17;;;1.20;;
15297;SDS011;7750;48.796;9.026;2024-03-02T13:08:02;58.20;;;36.60;;
15297;SDS011;7750;48.796;9.026;2024-03-02T13:13:04;2.50;;;1.80;;
15297;SDS011;7750;48.796;9.026;2024-03-02T13:23:16;3.40;;;1.10;;
15297;SDS011;7750;48.796;9.026;2024-03-02T13:28:17;1.87;;;1.13;;
15297;SDS011;7750;48.796;9.026;2024-03-02T13:33:17;1.73;;;1.17;;
15297;SDS011;7750;48.796;9.026;2024-03-02T13:38:22;1.90;;;1.10;;
15297;SDS011;7750;48.796;9.026;2024-03-02T13:43:24;2.80;;;1.53;;
15297;SDS011;7750;48.796;9.026;2024-03-02T13:48:25;2.13;;;1.20;;
15297;SDS011;7750;48.796;9.026;2024-03-02T13:58:38;2.13;;;1.47;;
15297;SDS011;7750;48.796;9.026;2024-03-02T14:03:39;2.37;;;1.50;;
15297;SDS011;7750;48.796;9.026;2024-03-02T14:08:40;2.30;;;1.47;;
15297;SDS011;7750;48.796;9.026;2024-03-02T14:13:42;2.00;;;1.27;;
15297;SDS011;7750;48.796;9.026;2024-03-02T14:18:44;2.63;;;1.13;;
15297;SDS011;7750;48.796;9.026;2024-03-02T14:23:45;2.40;;;1.60;;
15297;SDS011;7750;48.796;9.026;2024-03-02T14:28:45;2.17;;;1.40;;
15297;SDS011;7750;48.796;9.026;2024-03-02T14:33:46;3.70;;;1.50;;
15297;SDS011;7750;48.796;9.026;2024-03-02T14:38:47;2.73;;;1.43;;
15297;SDS011;7750;48.796;9.026;2024-03-02T14:43:48;2.10;;;1.50;;
15297;SDS011;7750;48.796;9.026;2024-03-02T14:48:49;1.90;;;1.30;;
15297;SDS011;7750;48.796;9.026;2024-03-02T14:53:50;3.27;;;1.43;;
15297;SDS011;7750;48.796;9.026;2024-03-02T14:58:51;2.43;;;1.50;;
15297;SDS011;7750;48.796;9.026;2024-03-02T15:03:53;2.70;;;1.53;;
15297;SDS011;7750;48.796;9.026;2024-03-02T15:14:05;2.60;;;1.60;;
15297;SDS011;7750;48.796;9.026;2024-03-02T15:19:06;2.53;;;1.50;;
15297;SDS011;7750;48.796;9.026;2024-03-02T15:24:06;7.17;;;3.97;;
15297;SDS011;7750;48.796;9.026;2024-03-02T15:29:13;4.50;;;3.03;;
15297;SDS011;7750;48.796;9.026;2024-03-02T15:34:30;3.00;;;2.10;;
15297;SDS011;7750;48.796;9.026;2024-03-02T15:39:51;2.37;;;1.47;;
15297;SDS011;7750;48.796;9.026;2024-03-02T15:44:52;2.87;;;1.73;;
15297;SDS011;7750;48.796;9.026;2024-03-02T15:49:53;2.90;;;1.50;;
15297;SDS011;7750;48.796;9.026;2024-03-02T15:54:55;7.50;;;2.10;;
15297;SDS011;7750;48.796;9.026;2024-03-02T15:59:56;4.17;;;1.53;;
15297;SDS011;7750;48.796;9.026;2024-03-02T16:04:56;2.50;;;1.40;;
15297;SDS011;7750;48.796;9.026;2024-03-02T16:10:03;2.90;;;1.53;;
15297;SDS011;7750;48.796;9.026;2024-03-02T16:15:16;2.87;;;1.43;;
15297;SDS011;7750;48.796;9.026;2024-03-02T16:25:28;2.57;;;1.50;;
15297;SDS011;7750;48.796;9.026;2024-03-02T16:30:30;2.33;;;1.50;;
15297;SDS011;7750;48.796;9.026;2024-03-02T16:35:30;2.83;;;1.80;;
15297;SDS011;7750;48.796;9.026;2024-03-02T16:40:31;2.70;;;1.80;;
15297;SDS011;7750;48.796;9.026;2024-03-02T16:45:33;2.20;;;1.20;;
15297;SDS011;7750;48.796;9.026;2024-03-02T16:50:33;2.00;;;1.30;;
15297;SDS011;7750;48.796;9.026;2024-03-02T16:55:34;2.10;;;1.50;;
15297;SDS011;7750;48.796;9.026;2024-03-02T17:00:35;2.63;;;1.70;;
15297;SDS011;7750;48.796;9.026;2024-03-02T17:05:38;3.20;;;1.93;;
15297;SDS011;7750;48.796;9.026;2024-03-02T17:10:42;4.97;;;2.10;;
15297;SDS011;7750;48.796;9.026;2024-03-02T17:15:56;2.80;;;1.93;;
15297;SDS011;7750;48.796;9.026;2024-03-02T18:28:55;12.90;;;9.07;;
15297;SDS011;7750;48.796;9.026;2024-03-02T18:44:16;17.80;;;10.07;;
15297;SDS011;7750;48.796;9.026;2024-03-02T18:54:27;17.30;;;11.23;;
15297;SDS011;7750;48.796;9.026;2024-03-02T18:59:27;14.80;;;10.23;;
15297;SDS011;7750;48.796;9.026;2024-03-02T19:04:31;15.57;;;10.10;;
15297;SDS011;7750;48.796;9.026;2024-03-02T19:09:36;14.50;;;10.60;;
15297;SDS011;7750;48.796;9.026;2024-03-02T19:51:42;15.97;;;11.40;;
15297;SDS011;7750;48.796;9.026;2024-03-02T19:56:50;18.90;;;12.87;;
15297;SDS011;7750;48.796;9.026;2024-03-02T20:01:54;22.53;;;11.47;;
15297;SDS011;7750;48.796;9.026;2024-03-02T20:33:36;19.83;;;13.07;;
15297;SDS011;7750;48.796;9.026;2024-03-02T20:49:28;17.23;;;11.67;;
15297;SDS011;7750;48.796;9.026;2024-03-02T20:54:31;16.90;;;11.57;;
15297;SDS011;7750;48.796;9.026;2024-03-02T20:59:35;16.83;;;11.90;;
15297;SDS011;7750;48.796;9.026;2024-03-02T21:04:35;17.90;;;12.37;;
15297;SDS011;7750;48.796;9.026;2024-03-02T21:09:37;19.07;;;11.70;;
15297;SDS011;7750;48.796;9.026;2024-03-02T21:14:38;17.77;;;12.57;;
15297;SDS011;7750;48.796;9.026;2024-03-02T21:19:39;20.70;;;13.93;;
15297;SDS011;7750;48.796;9.026;2024-03-02T21:24:41;20.47;;;13.40;;
15297;SDS011;7750;48.796;9.026;2024-03-02T21:40:22;20.23;;;14.43;;
15297;SDS011;7750;48.796;9.026;2024-03-02T21:45:23;23.27;;;15.23;;
15297;SDS011;7750;48.796;9.026;2024-03-02T21:50:37;25.03;;;15.43;;
15297;SDS011;7750;48.796;9.026;2024-03-02T21:55:41;21.57;;;14.33;;
15297;SDS011;7750;48.796;9.026;2024-03-02T22:00:41;23.07;;;13.47;;
15297;SDS011;7750;48.796;9.026;2024-03-02T22:05:43;20.80;;;14.40;;
15297;SDS011;7750;48.796;9.026;2024-03-02T22:10:47;20.27;;;12.27;;
15297;SDS011;7750;48.796;9.026;2024-03-02T22:15:47;20.87;;;13.27;;
15297;SDS011;7750;48.796;9.026;2024-03-02T22:20:53;22.87;;;14.50;;
15297;SDS011;7750;48.796;9.026;2024-03-02T22:25:53;19.83;;;13.00;;
15297;SDS011;7750;48.796;9.026;2024-03-02T22:30:59;24.30;;;14.37;;
15297;SDS011;7750;48.796;9.026;2024-03-02T22:36:08;23.50;;;14.67;;
15297;SDS011;7750;48.796;9.026;2024-03-02T22:41:08;17.10;;;13.00;;
15297;SDS011;7750;48.796;9.026;2024-03-02T22:46:11;27.20;;;15.83;;
15297;SDS011;7750;48.796;9.026;2024-03-02T22:51:23;21.93;;;14.00;;
15297;SDS011;7750;48.796;9.026;2024-03-02T22:56:26;22.87;;;14.20;;
15297;SDS011;7750;48.796;9.026;2024-03-02T23:01:26;27.03;;;16.50;;
15297;SDS011;7750;48.796;9.026;2024-03-02T23:06:28;21.40;;;14.00;;
15297;SDS011;7750;48.796;9.026;2024-03-02T23:11:33;24.20;;;15.20;;
15297;SDS011;7750;48.796;9.026;2024-03-02T23:16:40;27.93;;;14.00;;
15297;SDS011;7750;48.796;9.026;2024-03-02T23:21:44;22.63;;;14.27;;
15297;SDS011;7750;48.796;9.026;2024-03-02T23:26:44;27.17;;;17.73;;
15297;SDS011;7750;48.796;9.026;2024-03-02T23:31:45;23.80;;;16.20;;
15297;SDS011;7750;48.796;9.026;2024-03-02T23:36:46;26.33;;;16.50;;
15297;SDS011;7750;48.796;9.026;2024-03-02T23:41:47;21.87;;;15.17;;
15297;SDS011;7750;48.796;9.026;2024-03-02T23:46:47;31.70;;;18.33;;
15297;SDS011;7750;48.796;9.026;2024-03-02T23:51:48;23.67;;;15.10;;
15297;SDS011;7750;48.796;9.026;2024-03-02T23:56:49;27.73;;;16.83;;
